createdAt,value
2022-09-28T00:03:55.216Z,66447.44
2022-09-28T00:09:02.850Z,66399.72
2022-09-28T00:14:07.652Z,66362.53
2022-09-28T00:19:14.225Z,66381.41
2022-09-28T00:24:24.008Z,66363.59
2022-09-28T00:29:32.647Z,66267.28
2022-09-28T00:34:40.861Z,66365.28
2022-09-28T00:39:53.483Z,66412.63
2022-09-28T00:45:01.758Z,66388.47
2022-09-28T00:50:18.421Z,66310.72
2022-09-28T00:55:34.120Z,66237.78
2022-09-28T01:00:40.735Z,66275.78
2022-09-28T01:05:49.850Z,66289.66
2022-09-28T01:10:56.924Z,66275.16
2022-09-28T01:16:13.008Z,66278.00
2022-09-28T01:21:20.978Z,66276.69
2022-09-28T01:26:48.660Z,66237.69
2022-09-28T01:31:57.829Z,66271.41
2022-09-28T01:37:08.646Z,66215.63
2022-09-28T01:42:22.808Z,66213.94
2022-09-28T01:47:28.774Z,66189.00
2022-09-28T01:52:41.108Z,66176.50
2022-09-28T01:57:51.751Z,66247.44
2022-09-28T02:03:01.863Z,66245.31
2022-09-28T02:08:21.071Z,66356.16
2022-09-28T02:13:34.088Z,66423.38
2022-09-28T02:18:38.258Z,66263.81
2022-09-28T02:23:52.369Z,66310.03
2022-09-28T02:28:58.377Z,66378.16
2022-09-28T02:34:02.671Z,66356.78
2022-09-28T02:39:15.254Z,66361.16
2022-09-28T02:44:40.060Z,66423.81
2022-09-28T02:49:50.935Z,66357.22
2022-09-28T02:55:09.411Z,66349.28
2022-09-28T03:00:19.018Z,66476.59
2022-09-28T03:05:36.426Z,66495.31
2022-09-28T03:10:48.478Z,66521.63
2022-09-28T03:15:54.138Z,66501.69
2022-09-28T03:20:58.155Z,66507.44
2022-09-28T03:26:02.174Z,66474.31
2022-09-28T03:31:07.797Z,66437.31
2022-09-28T03:36:11.691Z,66401.94
2022-09-28T03:41:15.998Z,66423.91
2022-09-28T03:46:22.093Z,66438.25
2022-09-28T03:51:29.628Z,66435.09
2022-09-28T03:56:33.395Z,66387.28
2022-09-28T04:01:39.139Z,66394.72
2022-09-28T04:06:44.520Z,66452.81
2022-09-28T04:12:03.291Z,66457.13
2022-09-28T04:17:09.543Z,66343.44
2022-09-28T04:22:14.370Z,66335.31
2022-09-28T04:27:35.977Z,66300.53
2022-09-28T04:32:41.984Z,66325.69
2022-09-28T04:37:45.957Z,66328.81
2022-09-28T04:42:55.019Z,66357.41
2022-09-28T04:48:00.488Z,66336.56
2022-09-28T04:53:22.019Z,66351.50
2022-09-28T04:58:26.205Z,66473.22
2022-09-28T05:03:32.206Z,66584.00
2022-09-28T05:09:05.348Z,66555.53
2022-09-28T05:14:11.927Z,66537.75
2022-09-28T05:19:18.391Z,66493.72
2022-09-28T05:24:22.533Z,66568.88
2022-09-28T05:29:32.019Z,66533.84
2022-09-28T05:34:56.812Z,66531.25
2022-09-28T05:40:04.714Z,66477.06
2022-09-28T05:45:10.401Z,66638.84
2022-09-28T05:50:18.389Z,66665.19
2022-09-28T05:55:24.675Z,66573.34
2022-09-28T06:00:29.578Z,66449.13
2022-09-28T06:05:36.279Z,66378.25
2022-09-28T06:10:40.999Z,66382.00
2022-09-28T06:15:46.465Z,66356.25
2022-09-28T06:20:52.735Z,66456.66
2022-09-28T06:26:07.536Z,66476.97
2022-09-28T06:31:11.806Z,66429.34
2022-09-28T06:36:25.816Z,66429.09
2022-09-28T06:41:29.911Z,66362.59
2022-09-28T06:46:38.295Z,66393.81
2022-09-28T06:52:13.048Z,66400.34
2022-09-28T06:57:35.630Z,66381.47
2022-09-28T07:02:39.682Z,66494.25
2022-09-28T07:07:44.957Z,66566.72
2022-09-28T07:13:03.611Z,66540.91
2022-09-28T07:18:18.783Z,66503.38
2022-09-28T07:23:24.619Z,66457.19
2022-09-28T07:28:46.827Z,66555.94
2022-09-28T07:34:23.624Z,66540.91
2022-09-28T07:40:00.484Z,66457.19
2022-09-28T07:45:08.695Z,66499.47
2022-09-28T07:50:12.827Z,66533.38
2022-09-28T07:55:35.504Z,66512.97
2022-09-28T08:01:04.258Z,66508.22
2022-09-28T08:06:12.714Z,66484.66
2022-09-28T08:11:19.452Z,66540.84
2022-09-28T08:16:47.555Z,66517.28
2022-09-28T08:22:09.898Z,66501.75
2022-09-28T08:27:16.831Z,66485.66
2022-09-28T08:32:21.860Z,66458.72
2022-09-28T08:37:58.185Z,66504.91
2022-09-28T08:43:54.342Z,66553.81
2022-09-28T08:49:36.468Z,66685.09
2022-09-28T08:55:12.600Z,66710.78
2022-09-28T09:00:22.335Z,66782.97
2022-09-28T09:05:45.017Z,66872.50
2022-09-28T09:10:54.788Z,66871.84
2022-09-28T09:16:19.932Z,66790.03
2022-09-28T09:21:46.852Z,66825.44
2022-09-28T09:27:01.721Z,66733.47
2022-09-28T09:32:19.584Z,66768.50
2022-09-28T09:37:48.537Z,66711.00
2022-09-28T09:43:38.467Z,66663.50
2022-09-28T09:49:02.900Z,66654.44
2022-09-28T09:54:16.727Z,66731.28
2022-09-28T09:59:25.679Z,66847.75
2022-09-28T10:04:44.655Z,66885.91
2022-09-28T10:10:01.570Z,66945.78
2022-09-28T10:15:25.740Z,66829.91
2022-09-28T10:20:46.110Z,66808.81
2022-09-28T10:26:03.370Z,66771.19
2022-09-28T10:31:35.414Z,66772.19
2022-09-28T10:36:58.602Z,66805.13
2022-09-28T10:42:08.301Z,66890.75
2022-09-28T10:47:19.923Z,66889.28
2022-09-28T10:52:41.793Z,66917.06
2022-09-28T10:57:53.477Z,66949.56
2022-09-28T11:02:59.360Z,67034.06
2022-09-28T11:08:08.449Z,66979.66
2022-09-28T11:13:21.654Z,67067.59
2022-09-28T11:18:36.743Z,66896.66
2022-09-28T11:23:58.029Z,66822.28
2022-09-28T11:29:04.149Z,66890.69
2022-09-28T11:34:36.207Z,66881.13
2022-09-28T11:40:03.398Z,66936.56
2022-09-28T11:45:24.626Z,66893.59
2022-09-28T11:50:46.182Z,66934.94
2022-09-28T11:55:59.315Z,67090.78
2022-09-28T12:01:24.027Z,67264.59
2022-09-28T12:06:51.929Z,67326.72
2022-09-28T12:12:03.832Z,67471.59
2022-09-28T12:17:24.891Z,67450.44
2022-09-28T12:22:34.316Z,67315.91
2022-09-28T12:27:45.071Z,67295.88
2022-09-28T12:32:53.486Z,67402.97
2022-09-28T12:38:11.753Z,67428.22
2022-09-28T12:43:42.343Z,67551.66
2022-09-28T12:55:03.699Z,67517.09
2022-09-28T13:00:13.047Z,67572.66
2022-09-28T13:05:34.547Z,67611.22
2022-09-28T13:10:43.095Z,67668.06
2022-09-28T13:15:55.923Z,67716.78
2022-09-28T13:21:07.975Z,67744.91
2022-09-28T13:26:23.702Z,67759.59
2022-09-28T13:31:33.958Z,67586.38
2022-09-28T13:36:47.857Z,67644.75
2022-09-28T13:41:54.682Z,67641.53
2022-09-28T13:47:23.363Z,67799.66
2022-09-28T13:52:41.567Z,67591.78
2022-09-28T13:57:52.022Z,67664.31
2022-09-28T14:03:04.733Z,67724.38
2022-09-28T14:08:28.067Z,67759.66
2022-09-28T14:14:07.313Z,67717.94
2022-09-28T14:19:19.910Z,67532.66
2022-09-28T14:24:46.121Z,67467.28
2022-09-28T14:29:55.587Z,67463.53
2022-09-28T14:35:04.640Z,67589.56
2022-09-28T14:40:37.204Z,67661.56
2022-09-28T14:45:43.115Z,67730.28
2022-09-28T14:50:50.011Z,67696.34
2022-09-28T14:55:58.893Z,67716.84
2022-09-28T15:01:06.530Z,67787.19
2022-09-28T15:06:16.258Z,67729.38
2022-09-28T15:11:23.951Z,67703.25
2022-09-28T15:16:32.244Z,67621.91
2022-09-28T15:21:39.955Z,67594.44
2022-09-28T15:26:49.405Z,67622.69
2022-09-28T15:31:54.647Z,67530.06
2022-09-28T15:37:00.362Z,67442.88
2022-09-28T15:42:05.064Z,67418.00
2022-09-28T15:47:13.991Z,67395.97
2022-09-28T15:52:29.807Z,67339.63
2022-09-28T15:57:38.072Z,67259.19
2022-09-28T16:03:00.518Z,67222.94
2022-09-28T16:08:07.059Z,67137.78
2022-09-28T16:13:17.952Z,67032.06
2022-09-28T16:18:23.714Z,66951.03
2022-09-28T16:23:33.267Z,66986.16
2022-09-28T16:28:51.960Z,66943.50
2022-09-28T16:33:58.966Z,66944.09
2022-09-28T16:39:04.247Z,66919.91
2022-09-28T16:44:16.775Z,66961.81
2022-09-28T16:49:20.888Z,66932.19
2022-09-28T16:54:44.334Z,66954.75
2022-09-28T16:59:48.479Z,66952.13
2022-09-28T17:04:52.825Z,66904.09
2022-09-28T17:09:57.959Z,66875.66
2022-09-28T17:15:01.641Z,66923.69
2022-09-28T17:20:21.507Z,66865.34
2022-09-28T17:25:30.889Z,66848.69
2022-09-28T17:30:34.858Z,66788.41
2022-09-28T17:35:40.550Z,66788.34
2022-09-28T17:40:48.160Z,66771.72
2022-09-28T17:45:53.210Z,66757.66
2022-09-28T17:50:57.282Z,66764.59
2022-09-28T17:56:02.887Z,66798.03
2022-09-28T18:01:07.069Z,66761.50
2022-09-28T18:06:14.662Z,66795.25
2022-09-28T18:11:20.175Z,66797.50
2022-09-28T18:16:25.057Z,66830.97
2022-09-28T18:21:32.388Z,66757.13
2022-09-28T18:26:38.623Z,66748.59
2022-09-28T18:31:44.829Z,66805.72
2022-09-28T18:36:49.301Z,66807.25
2022-09-28T18:41:56.505Z,66767.44
2022-09-28T18:47:02.438Z,66779.28
2022-09-28T18:52:06.788Z,66774.34
2022-09-28T18:57:15.341Z,66787.28
2022-09-28T19:02:19.469Z,66744.75
2022-09-28T19:07:23.595Z,66758.22
2022-09-28T19:12:29.046Z,66777.59
2022-09-28T19:17:36.486Z,66817.44
2022-09-28T19:22:40.814Z,66788.97
2022-09-28T19:27:47.955Z,66782.97
2022-09-28T19:32:52.033Z,66800.19
2022-09-28T19:37:56.258Z,66767.44
2022-09-28T19:43:02.086Z,66724.38
2022-09-28T19:48:06.193Z,66714.16
2022-09-28T19:53:10.891Z,66711.38
2022-09-28T19:58:17.232Z,66659.34
2022-09-28T20:03:21.453Z,66710.41
2022-09-28T20:08:26.343Z,66688.78
2022-09-28T20:13:35.839Z,66700.19
2022-09-28T20:18:44.306Z,66694.72
2022-09-28T20:23:49.724Z,66664.56
2022-09-28T20:28:55.878Z,66702.69
2022-09-28T20:34:00.249Z,66725.47
2022-09-28T20:39:05.219Z,66734.59
2022-09-28T20:44:10.925Z,66744.22
2022-09-28T20:49:15.034Z,66721.06
2022-09-28T20:54:19.727Z,66678.41
2022-09-28T20:59:27.869Z,66735.06
2022-09-28T21:04:34.597Z,66734.53
2022-09-28T21:09:38.803Z,66741.06
2022-09-28T21:14:45.817Z,66756.75
2022-09-28T21:19:49.874Z,66734.53
2022-09-28T21:24:54.060Z,66698.00
2022-09-28T21:29:59.579Z,66701.09
2022-09-28T21:35:04.537Z,66708.69
2022-09-28T21:40:11.006Z,66715.78
2022-09-28T21:45:17.585Z,66775.09
2022-09-28T21:50:23.614Z,66772.19
2022-09-28T21:55:27.560Z,66768.97
2022-09-28T22:00:32.946Z,66742.59
2022-09-28T22:05:37.092Z,66761.97
2022-09-28T22:10:41.046Z,66719.00
2022-09-28T22:15:46.397Z,66738.84
2022-09-28T22:20:50.366Z,66785.75
2022-09-28T22:25:59.619Z,66762.06
2022-09-28T22:31:05.679Z,66736.63
2022-09-28T22:36:11.507Z,66753.88
2022-09-28T22:41:17.029Z,66770.13
2022-09-28T22:46:24.369Z,66814.81
2022-09-28T22:51:30.514Z,66831.03
2022-09-28T22:56:34.824Z,66773.81
2022-09-28T23:01:40.585Z,66745.28
2022-09-28T23:06:44.991Z,66735.06
2022-09-28T23:11:48.942Z,66781.41
2022-09-28T23:16:54.372Z,66793.28
2022-09-28T23:21:59.379Z,66759.28
2022-09-28T23:27:03.379Z,66741.59
2022-09-28T23:32:08.888Z,66782.97
2022-09-28T23:37:12.862Z,66799.66
2022-09-28T23:42:17.207Z,66791.09
2022-09-28T23:47:22.554Z,66780.81
2022-09-28T23:52:26.524Z,66793.28
2022-09-28T23:57:30.479Z,66806.66
